createdAt,value
2022-11-08T00:00:37.065Z,7.90
2022-11-08T00:02:10.341Z,8.00
2022-11-08T00:03:43.536Z,8.00
2022-11-08T00:05:34.261Z,8.00
2022-11-08T00:07:24.949Z,7.90
2022-11-08T00:09:15.389Z,8.00
2022-11-08T00:11:05.683Z,8.00
2022-11-08T00:12:57.513Z,8.00
2022-11-08T00:14:30.606Z,8.00
2022-11-08T00:16:03.779Z,7.90
2022-11-08T00:17:36.876Z,7.90
2022-11-08T00:19:09.889Z,7.90
2022-11-08T00:20:42.995Z,7.80
2022-11-08T00:22:16.415Z,7.70
2022-11-08T00:23:49.458Z,7.70
2022-11-08T00:25:22.537Z,7.70
2022-11-08T00:26:55.639Z,7.70
2022-11-08T00:28:30.101Z,7.70
2022-11-08T00:30:03.227Z,7.70
2022-11-08T00:31:35.323Z,7.70
2022-11-08T00:33:08.335Z,7.80
2022-11-08T00:34:40.480Z,7.90
2022-11-08T00:36:13.553Z,7.90
2022-11-08T00:37:46.654Z,8.00
2022-11-08T00:39:19.694Z,8.00
2022-11-08T00:40:52.863Z,8.00
2022-11-08T00:42:25.990Z,8.00
2022-11-08T00:44:00.408Z,7.90
2022-11-08T00:45:33.478Z,7.90
2022-11-08T00:47:06.739Z,7.80
2022-11-08T00:48:39.910Z,7.70
2022-11-08T00:50:12.953Z,7.70
2022-11-08T00:51:46.031Z,7.70
2022-11-08T00:53:19.079Z,7.70
2022-11-08T00:54:52.252Z,7.60
2022-11-08T00:56:25.425Z,7.60
2022-11-08T00:58:00.088Z,7.50
2022-11-08T00:59:35.058Z,7.50
2022-11-08T01:01:10.270Z,7.50
2022-11-08T01:02:43.377Z,7.50
2022-11-08T01:04:17.924Z,7.50
2022-11-08T01:05:52.134Z,7.50
2022-11-08T01:07:25.166Z,7.40
2022-11-08T01:08:58.445Z,7.40
2022-11-08T01:10:30.556Z,7.40
2022-11-08T01:12:03.681Z,7.40
2022-11-08T01:13:36.015Z,7.30
2022-11-08T01:15:11.031Z,7.30
2022-11-08T01:16:45.279Z,7.30
2022-11-08T01:18:18.222Z,7.30
2022-11-08T01:19:51.494Z,7.40
2022-11-08T01:21:25.078Z,7.40
2022-11-08T01:22:57.142Z,7.40
2022-11-08T01:24:30.205Z,7.30
2022-11-08T01:26:04.659Z,7.30
2022-11-08T01:27:37.745Z,7.30
2022-11-08T01:29:10.808Z,7.30
2022-11-08T01:30:45.564Z,7.30
2022-11-08T01:32:18.640Z,7.30
2022-11-08T01:33:52.678Z,7.30
2022-11-08T01:35:25.782Z,7.20
2022-11-08T01:36:58.897Z,7.20
2022-11-08T01:38:30.987Z,7.20
2022-11-08T01:40:05.222Z,7.20
2022-11-08T01:41:39.830Z,7.30
2022-11-08T01:43:34.774Z,7.30
2022-11-08T01:45:11.705Z,7.20
2022-11-08T01:46:48.261Z,7.20
2022-11-08T01:48:20.539Z,7.20
2022-11-08T01:49:57.337Z,7.20
2022-11-08T01:51:34.252Z,7.10
2022-11-08T01:53:07.349Z,7.20
2022-11-08T01:54:44.144Z,7.20
2022-11-08T01:56:17.856Z,7.20
2022-11-08T01:57:56.219Z,7.10
2022-11-08T01:59:28.972Z,7.10
2022-11-08T02:01:03.805Z,7.00
2022-11-08T02:02:39.657Z,7.00
2022-11-08T02:04:16.348Z,7.10
2022-11-08T02:05:49.636Z,7.10
2022-11-08T02:07:24.003Z,7.10
2022-11-08T02:09:01.435Z,7.10
2022-11-08T02:10:37.097Z,7.10
2022-11-08T02:12:11.650Z,7.10
2022-11-08T02:13:44.747Z,7.10
2022-11-08T02:15:19.339Z,7.10
2022-11-08T02:16:52.469Z,7.10
2022-11-08T02:18:29.768Z,7.00
2022-11-08T02:20:02.891Z,6.90
2022-11-08T02:21:40.327Z,6.90
2022-11-08T02:23:21.655Z,6.90
2022-11-08T02:24:56.158Z,6.90
2022-11-08T02:26:32.388Z,6.70
2022-11-08T02:28:05.870Z,6.70
2022-11-08T02:29:37.998Z,6.60
2022-11-08T02:31:11.428Z,6.50
2022-11-08T02:32:44.702Z,6.50
2022-11-08T02:34:17.084Z,6.40
2022-11-08T02:35:52.970Z,6.30
2022-11-08T02:37:27.638Z,6.40
2022-11-08T02:39:00.664Z,6.30
2022-11-08T02:40:46.771Z,6.40
2022-11-08T02:42:21.504Z,6.50
2022-11-08T02:43:54.595Z,6.50
2022-11-08T02:45:27.646Z,6.50
2022-11-08T02:47:00.760Z,6.60
2022-11-08T02:48:34.054Z,6.50
2022-11-08T02:50:08.244Z,6.50
2022-11-08T02:51:40.367Z,6.50
2022-11-08T02:53:13.818Z,6.60
2022-11-08T02:54:46.923Z,6.70
2022-11-08T02:56:20.521Z,6.80
2022-11-08T02:57:53.635Z,6.90
2022-11-08T02:59:26.684Z,6.90
2022-11-08T03:00:59.863Z,7.00
2022-11-08T03:02:33.001Z,7.10
2022-11-08T03:04:06.500Z,7.10
2022-11-08T03:05:39.626Z,7.10
2022-11-08T03:07:12.707Z,7.10
2022-11-08T03:08:45.764Z,6.90
2022-11-08T03:10:18.601Z,6.80
2022-11-08T03:11:53.032Z,6.70
2022-11-08T03:13:26.110Z,6.60
2022-11-08T03:14:59.137Z,6.50
2022-11-08T03:16:32.442Z,6.50
2022-11-08T03:18:05.588Z,6.40
2022-11-08T03:19:38.692Z,6.30
2022-11-08T03:21:11.768Z,6.30
2022-11-08T03:22:43.858Z,6.20
2022-11-08T03:24:17.036Z,6.10
2022-11-08T03:25:50.115Z,6.10
2022-11-08T03:27:25.010Z,6.10
2022-11-08T03:28:58.108Z,6.10
2022-11-08T03:30:31.110Z,6.10
2022-11-08T03:32:04.291Z,6.20
2022-11-08T03:33:36.349Z,6.10
2022-11-08T03:35:10.250Z,6.00
2022-11-08T03:36:43.352Z,6.00
2022-11-08T03:38:15.794Z,6.00
2022-11-08T03:39:49.127Z,5.80
2022-11-08T03:41:22.189Z,5.80
2022-11-08T03:42:58.429Z,5.70
2022-11-08T03:44:31.839Z,5.70
2022-11-08T03:46:04.877Z,5.70
2022-11-08T03:47:38.823Z,5.80
2022-11-08T03:49:11.870Z,5.80
2022-11-08T03:50:45.006Z,6.00
2022-11-08T03:52:18.009Z,6.10
2022-11-08T03:53:51.279Z,5.80
2022-11-08T03:55:26.896Z,5.80
2022-11-08T03:56:59.973Z,5.70
2022-11-08T03:58:35.879Z,5.60
2022-11-08T04:00:11.518Z,5.60
2022-11-08T04:01:44.819Z,5.60
2022-11-08T04:03:17.951Z,5.60
2022-11-08T04:04:51.020Z,5.40
2022-11-08T04:06:24.214Z,5.30
2022-11-08T04:07:56.474Z,5.20
2022-11-08T04:09:29.486Z,5.20
2022-11-08T04:11:22.499Z,5.20
2022-11-08T04:13:13.158Z,5.20
2022-11-08T04:15:05.114Z,5.30
2022-11-08T04:16:38.253Z,5.30
2022-11-08T04:18:28.990Z,5.30
2022-11-08T04:20:19.570Z,5.30
2022-11-08T04:21:54.671Z,5.20
2022-11-08T04:23:28.963Z,5.20
2022-11-08T04:25:01.964Z,5.40
2022-11-08T04:26:35.025Z,5.50
2022-11-08T04:28:07.298Z,5.60
2022-11-08T04:29:40.520Z,5.70
2022-11-08T04:31:17.476Z,5.90
2022-11-08T04:32:49.519Z,6.10
2022-11-08T04:34:22.629Z,6.10
2022-11-08T04:35:56.030Z,6.20
2022-11-08T04:37:29.041Z,6.30
2022-11-08T04:39:02.114Z,6.30
2022-11-08T04:40:34.202Z,6.40
2022-11-08T04:42:07.299Z,6.40
2022-11-08T04:43:40.524Z,6.40
2022-11-08T04:45:13.585Z,6.50
2022-11-08T04:46:47.973Z,6.50
2022-11-08T04:48:21.178Z,6.50
2022-11-08T04:49:54.518Z,6.50
2022-11-08T04:51:29.409Z,6.60
2022-11-08T04:53:01.450Z,6.50
2022-11-08T04:54:34.525Z,6.50
2022-11-08T04:56:10.230Z,6.50
2022-11-08T04:57:42.289Z,6.50
2022-11-08T04:59:15.309Z,6.50
2022-11-08T05:00:47.394Z,6.50
2022-11-08T05:02:21.895Z,6.50
2022-11-08T05:03:55.838Z,6.50
2022-11-08T05:05:28.834Z,6.40
2022-11-08T05:07:01.891Z,6.40
2022-11-08T05:08:35.363Z,6.30
2022-11-08T05:10:09.117Z,6.30
2022-11-08T05:11:42.143Z,6.30
2022-11-08T05:13:15.207Z,6.30
2022-11-08T05:14:48.261Z,6.20
2022-11-08T05:16:23.657Z,6.20
2022-11-08T05:17:58.046Z,6.30
2022-11-08T05:19:44.982Z,6.30
2022-11-08T05:21:38.591Z,6.20
2022-11-08T05:23:26.718Z,6.10
2022-11-08T05:24:59.736Z,6.10
2022-11-08T05:26:35.243Z,6.00
2022-11-08T05:28:07.318Z,6.00
2022-11-08T05:29:42.326Z,6.00
2022-11-08T05:31:15.903Z,6.00
2022-11-08T05:32:50.751Z,6.00
2022-11-08T05:34:25.499Z,5.90
2022-11-08T05:36:05.665Z,5.90
2022-11-08T05:37:42.931Z,5.90
2022-11-08T05:39:16.038Z,6.00
2022-11-08T05:40:49.067Z,6.00
2022-11-08T05:42:22.139Z,6.00
2022-11-08T05:43:56.595Z,6.00
2022-11-08T05:45:29.672Z,6.00
2022-11-08T05:47:02.868Z,6.00
2022-11-08T05:48:36.928Z,6.00
2022-11-08T05:50:15.490Z,6.00
2022-11-08T05:51:51.406Z,6.00
2022-11-08T05:53:24.533Z,5.90
2022-11-08T05:54:57.658Z,5.90
2022-11-08T05:56:30.682Z,5.90
2022-11-08T05:58:03.898Z,5.80
2022-11-08T05:59:35.960Z,5.80
2022-11-08T06:01:11.172Z,5.80
2022-11-08T06:02:44.230Z,5.80
2022-11-08T06:04:17.522Z,5.80
2022-11-08T06:05:51.934Z,5.80
2022-11-08T06:07:25.167Z,5.90
2022-11-08T06:08:58.243Z,5.90
2022-11-08T06:10:31.311Z,5.90
2022-11-08T06:12:05.114Z,5.80
2022-11-08T06:13:39.268Z,5.80
2022-11-08T06:15:12.496Z,5.70
2022-11-08T06:16:45.620Z,5.70
2022-11-08T06:18:18.669Z,5.70
2022-11-08T06:19:51.738Z,5.70
2022-11-08T06:21:27.238Z,5.80
2022-11-08T06:23:00.288Z,5.80
2022-11-08T06:24:33.334Z,5.90
2022-11-08T06:26:06.693Z,6.00
2022-11-08T06:27:40.133Z,6.10
2022-11-08T06:29:13.337Z,6.10
2022-11-08T06:30:46.480Z,6.00
2022-11-08T06:32:19.773Z,5.90
2022-11-08T06:33:53.074Z,5.90
2022-11-08T06:35:26.278Z,5.80
2022-11-08T06:37:00.333Z,5.70
2022-11-08T06:38:33.447Z,5.70
2022-11-08T06:40:07.601Z,5.80
2022-11-08T06:41:40.706Z,5.80
2022-11-08T06:43:19.099Z,5.90
2022-11-08T06:44:53.090Z,6.00
2022-11-08T06:46:26.662Z,6.10
2022-11-08T06:48:00.339Z,6.40
2022-11-08T06:49:33.420Z,6.90
2022-11-08T06:51:06.808Z,7.50
2022-11-08T06:52:41.575Z,8.00
2022-11-08T06:54:17.797Z,8.70
2022-11-08T06:55:51.026Z,9.10
2022-11-08T06:57:24.259Z,9.70
2022-11-08T06:58:57.283Z,10.20
2022-11-08T07:00:30.619Z,10.50
2022-11-08T07:02:03.841Z,10.70
2022-11-08T07:03:37.520Z,10.60
2022-11-08T07:05:11.060Z,10.70
2022-11-08T07:06:44.357Z,10.90
2022-11-08T07:08:23.622Z,11.20
2022-11-08T07:10:02.326Z,11.40
2022-11-08T07:11:37.071Z,11.50
2022-11-08T07:13:13.308Z,11.20
2022-11-08T07:14:46.389Z,10.90
2022-11-08T07:16:19.475Z,10.70
2022-11-08T07:17:52.525Z,10.20
2022-11-08T07:19:25.658Z,10.40
2022-11-08T07:21:02.004Z,10.80
2022-11-08T07:22:35.330Z,11.00
2022-11-08T07:24:10.083Z,11.30
2022-11-08T07:25:43.402Z,11.40
2022-11-08T07:27:16.511Z,11.30
2022-11-08T07:28:49.562Z,11.50
2022-11-08T07:30:22.693Z,11.50
2022-11-08T07:31:55.803Z,11.40
2022-11-08T07:33:29.204Z,11.40
2022-11-08T07:35:02.270Z,11.40
2022-11-08T07:36:35.292Z,11.00
2022-11-08T07:38:08.775Z,10.90
2022-11-08T07:39:43.315Z,10.80
2022-11-08T07:41:16.379Z,10.90
2022-11-08T07:43:10.778Z,10.90
2022-11-08T07:44:42.804Z,10.90
2022-11-08T07:46:15.817Z,10.90
2022-11-08T07:47:48.860Z,10.90
2022-11-08T07:49:21.979Z,11.00
2022-11-08T07:50:55.333Z,11.10
2022-11-08T07:52:28.538Z,11.10
2022-11-08T07:54:03.180Z,11.10
2022-11-08T07:55:39.368Z,11.30
2022-11-08T07:57:12.478Z,11.30
2022-11-08T07:58:45.494Z,11.40
2022-11-08T08:00:18.998Z,11.50
2022-11-08T08:01:52.271Z,11.60
2022-11-08T08:03:25.418Z,11.70
2022-11-08T08:04:58.471Z,11.80
2022-11-08T08:06:31.520Z,12.00
2022-11-08T08:08:05.538Z,12.10
2022-11-08T08:09:38.583Z,12.40
2022-11-08T08:11:12.963Z,12.50
2022-11-08T08:12:47.076Z,12.60
2022-11-08T08:14:20.319Z,12.70
2022-11-08T08:15:53.437Z,12.90
2022-11-08T08:17:26.541Z,13.10
2022-11-08T08:18:59.584Z,13.40
2022-11-08T08:20:33.601Z,13.60
2022-11-08T08:22:07.130Z,13.60
2022-11-08T08:23:40.150Z,13.60
2022-11-08T08:25:13.489Z,13.60
2022-11-08T08:26:47.881Z,13.60
2022-11-08T08:28:20.970Z,13.60
2022-11-08T08:29:54.001Z,13.90
2022-11-08T08:31:27.116Z,14.00
2022-11-08T08:34:58.466Z,14.10
2022-11-08T08:36:31.531Z,14.30
2022-11-08T08:38:05.841Z,14.30
2022-11-08T08:39:38.953Z,14.40
2022-11-08T08:41:12.081Z,14.70
2022-11-08T08:42:46.472Z,14.80
2022-11-08T08:44:19.527Z,14.80
2022-11-08T08:45:52.594Z,15.00
2022-11-08T08:47:25.866Z,15.00
2022-11-08T08:48:58.883Z,15.00
2022-11-08T08:50:33.149Z,15.00
2022-11-08T08:52:06.397Z,15.30
2022-11-08T08:55:12.911Z,15.40
2022-11-08T10:52:20.600Z,15.20
2022-11-08T10:53:53.653Z,22.10
2022-11-08T10:55:30.914Z,22.40
2022-11-08T10:57:03.945Z,22.20
2022-11-08T10:58:39.349Z,22.00
2022-11-08T11:00:28.410Z,22.00
2022-11-08T11:02:02.225Z,21.80
2022-11-08T11:03:35.299Z,21.20
2022-11-08T11:05:29.374Z,21.50
2022-11-08T11:07:05.668Z,21.70
2022-11-08T11:08:49.893Z,21.30
2022-11-08T11:10:25.950Z,20.60
2022-11-08T11:12:00.243Z,19.90
2022-11-08T11:13:33.310Z,19.80
2022-11-08T11:15:15.059Z,20.10
2022-11-08T11:16:56.341Z,20.10
2022-11-08T11:18:31.824Z,20.00
2022-11-08T11:20:05.383Z,20.40
2022-11-08T11:21:40.864Z,20.70
2022-11-08T11:23:15.310Z,20.30
2022-11-08T11:24:51.296Z,20.20
2022-11-08T11:26:35.418Z,19.90
2022-11-08T11:28:15.234Z,19.40
2022-11-08T11:29:48.578Z,20.00
2022-11-08T11:31:22.437Z,20.00
2022-11-08T11:33:04.324Z,19.60
2022-11-08T11:34:44.741Z,19.10
2022-11-08T11:36:21.742Z,19.30
2022-11-08T11:37:56.516Z,19.40
2022-11-08T11:39:36.568Z,19.60
2022-11-08T11:41:16.614Z,19.80
2022-11-08T11:43:00.841Z,20.00
2022-11-08T11:44:40.311Z,20.00
2022-11-08T11:46:21.365Z,19.80
2022-11-08T11:47:56.756Z,20.00
2022-11-08T11:49:32.119Z,20.00
2022-11-08T11:51:05.271Z,20.10
2022-11-08T11:52:38.447Z,20.00
2022-11-08T11:54:16.398Z,20.00
2022-11-08T11:56:10.433Z,19.60
2022-11-08T11:57:57.258Z,19.50
2022-11-08T11:59:58.399Z,19.30
2022-11-08T12:01:49.925Z,18.80
2022-11-08T12:03:47.058Z,18.90
2022-11-08T12:05:55.921Z,19.00
2022-11-08T12:07:32.710Z,19.10
2022-11-08T12:09:19.496Z,19.10
2022-11-08T12:11:06.143Z,19.40
2022-11-08T12:12:50.969Z,19.50
2022-11-08T12:14:42.424Z,19.60
2022-11-08T12:16:20.992Z,19.80
2022-11-08T12:18:30.544Z,20.00
2022-11-08T12:20:39.693Z,19.30
2022-11-08T12:22:40.524Z,19.80
2022-11-08T12:24:33.121Z,19.70
2022-11-08T12:26:16.478Z,19.70
2022-11-08T12:27:53.389Z,19.60
2022-11-08T12:29:30.544Z,19.30
2022-11-08T12:31:16.092Z,19.00
2022-11-08T12:33:15.406Z,18.70
2022-11-08T12:35:02.189Z,18.50
2022-11-08T12:36:43.746Z,18.50
2022-11-08T12:38:23.607Z,18.50
2022-11-08T12:40:01.084Z,18.80
2022-11-08T12:41:43.658Z,18.80
2022-11-08T12:43:34.028Z,18.60
2022-11-08T12:45:42.695Z,18.60
2022-11-08T12:47:27.145Z,18.80
2022-11-08T12:49:22.924Z,19.00
2022-11-08T12:51:02.896Z,18.80
2022-11-08T12:52:56.152Z,18.40
2022-11-08T12:54:36.686Z,17.90
2022-11-08T12:56:15.821Z,17.40
2022-11-08T12:57:54.376Z,17.20
2022-11-08T12:59:31.144Z,16.90
2022-11-08T13:01:07.787Z,16.80
2022-11-08T13:02:41.767Z,16.90
2022-11-08T13:04:52.769Z,17.00
2022-11-08T13:06:30.978Z,17.10
2022-11-08T13:08:12.720Z,17.30
2022-11-08T13:09:52.827Z,17.50
2022-11-08T13:11:33.363Z,17.60
2022-11-08T13:13:24.007Z,17.60
2022-11-08T13:14:59.647Z,17.50
2022-11-08T13:16:39.912Z,17.70
2022-11-08T13:18:35.326Z,17.90
2022-11-08T13:20:39.979Z,17.90
2022-11-08T13:22:42.403Z,17.90
2022-11-08T13:24:44.409Z,17.80
2022-11-08T13:26:23.818Z,17.60
2022-11-08T13:27:56.896Z,17.10
2022-11-08T13:29:33.259Z,16.80
2022-11-08T13:31:27.167Z,16.60
2022-11-08T13:33:06.273Z,16.30
2022-11-08T13:34:47.134Z,16.10
2022-11-08T13:36:31.886Z,16.00
2022-11-08T13:38:19.856Z,15.90
2022-11-08T13:40:29.005Z,15.90
2022-11-08T13:42:04.844Z,16.10
2022-11-08T13:43:38.030Z,16.40
2022-11-08T13:45:27.227Z,16.60
2022-11-08T13:47:00.298Z,16.70
2022-11-08T13:48:37.255Z,16.80
2022-11-08T13:50:47.597Z,16.80
2022-11-08T13:52:44.387Z,16.80
2022-11-08T13:54:50.101Z,16.80
2022-11-08T13:56:48.634Z,16.60
2022-11-08T13:58:34.272Z,16.40
2022-11-08T14:00:33.943Z,16.10
2022-11-08T14:02:30.946Z,15.90
2022-11-08T14:04:04.142Z,15.50
2022-11-08T14:05:49.287Z,15.30
2022-11-08T14:07:29.357Z,15.10
2022-11-08T14:09:11.533Z,15.00
2022-11-08T14:11:21.892Z,14.90
2022-11-08T14:13:05.482Z,14.80
2022-11-08T14:14:53.224Z,14.60
2022-11-08T14:16:32.569Z,14.60
2022-11-08T14:18:10.994Z,14.50
2022-11-08T14:19:46.670Z,14.30
2022-11-08T14:21:21.096Z,14.20
2022-11-08T14:22:54.382Z,14.20
2022-11-08T14:24:30.152Z,14.10
2022-11-08T14:26:05.903Z,14.00
2022-11-08T14:27:41.955Z,14.00
2022-11-08T14:29:17.389Z,13.90
2022-11-08T14:30:51.197Z,13.90
2022-11-08T14:32:25.625Z,13.90
2022-11-08T14:33:59.955Z,13.90
2022-11-08T14:35:33.253Z,13.90
2022-11-08T14:37:13.694Z,13.80
2022-11-08T14:38:49.783Z,13.80
2022-11-08T14:40:25.252Z,13.70
2022-11-08T14:42:01.032Z,13.60
2022-11-08T14:43:42.474Z,13.60
2022-11-08T14:45:20.612Z,13.50
2022-11-08T14:46:56.632Z,13.30
2022-11-08T14:48:32.021Z,13.10
2022-11-08T14:50:16.554Z,13.00
2022-11-08T14:52:07.670Z,13.00
2022-11-08T14:53:47.464Z,12.80
2022-11-08T14:55:25.154Z,12.70
2022-11-08T14:56:58.241Z,12.60
2022-11-08T14:58:31.401Z,12.50
2022-11-08T15:00:10.839Z,12.40
2022-11-08T15:01:48.984Z,12.30
2022-11-08T15:03:23.197Z,12.10
2022-11-08T15:04:57.680Z,12.00
2022-11-08T15:06:36.037Z,11.90
2022-11-08T15:08:20.835Z,11.80
2022-11-08T15:09:54.422Z,11.70
2022-11-08T15:11:30.090Z,11.60
2022-11-08T15:13:03.310Z,11.50
2022-11-08T15:14:37.951Z,11.50
2022-11-08T15:16:12.305Z,11.60
2022-11-08T15:17:45.877Z,11.60
2022-11-08T15:19:30.399Z,11.40
2022-11-08T15:21:07.699Z,11.30
2022-11-08T15:22:43.953Z,11.20
2022-11-08T15:24:18.171Z,11.10
2022-11-08T15:25:57.507Z,11.10
2022-11-08T15:27:30.795Z,11.00
2022-11-08T15:29:07.975Z,10.90
2022-11-08T15:30:43.979Z,10.90
2022-11-08T15:32:18.799Z,10.90
2022-11-08T15:33:51.852Z,10.90
2022-11-08T15:35:31.944Z,10.80
2022-11-08T15:37:20.394Z,10.70
2022-11-08T15:38:53.484Z,10.60
2022-11-08T15:40:30.510Z,10.50
2022-11-08T15:42:11.224Z,10.40
2022-11-08T15:43:44.220Z,10.30
2022-11-08T15:45:26.439Z,10.10
2022-11-08T15:46:59.465Z,10.00
2022-11-08T15:48:33.391Z,9.90
2022-11-08T15:50:16.302Z,9.90
2022-11-08T15:51:50.768Z,9.80
2022-11-08T15:53:26.400Z,9.70
2022-11-08T15:54:59.890Z,9.70
2022-11-08T15:56:32.969Z,9.60
2022-11-08T15:58:11.522Z,9.50
2022-11-08T15:59:44.596Z,9.40
2022-11-08T16:01:20.265Z,9.30
2022-11-08T16:02:54.023Z,9.20
2022-11-08T16:04:28.678Z,9.10
2022-11-08T16:06:01.812Z,9.00
2022-11-08T16:07:34.909Z,9.00
2022-11-08T16:09:09.274Z,9.00
2022-11-08T16:10:45.516Z,9.00
2022-11-08T16:12:18.725Z,9.10
2022-11-08T16:13:52.081Z,9.20
2022-11-08T16:15:27.112Z,9.30
2022-11-08T16:17:00.222Z,9.30
2022-11-08T16:18:34.373Z,9.30
2022-11-08T16:20:26.938Z,9.40
2022-11-08T16:22:07.135Z,9.50
2022-11-08T16:23:41.171Z,9.50
2022-11-08T16:25:15.750Z,9.60
2022-11-08T16:26:50.129Z,9.50
2022-11-08T16:28:28.416Z,9.50
2022-11-08T16:30:01.676Z,9.50
2022-11-08T16:31:35.224Z,9.50
2022-11-08T16:33:19.709Z,9.60
2022-11-08T16:34:52.736Z,9.70
2022-11-08T16:36:27.828Z,9.70
2022-11-08T16:38:00.917Z,9.70
2022-11-08T16:39:33.959Z,9.70
2022-11-08T16:41:08.472Z,9.70
2022-11-08T16:42:41.487Z,9.70
2022-11-08T16:44:14.675Z,9.70
2022-11-08T16:46:05.054Z,9.70
2022-11-08T16:47:39.424Z,9.70
2022-11-08T16:49:22.136Z,9.60
2022-11-08T16:51:00.265Z,9.60
2022-11-08T16:52:33.326Z,9.60
2022-11-08T16:54:16.104Z,9.50
2022-11-08T16:55:49.516Z,9.50
2022-11-08T16:57:39.590Z,9.60
2022-11-08T16:59:12.698Z,9.60
2022-11-08T17:00:46.419Z,9.70
2022-11-08T17:02:25.866Z,9.70
2022-11-08T17:03:58.897Z,9.70
2022-11-08T17:05:32.043Z,9.70
2022-11-08T17:07:08.859Z,9.60
2022-11-08T17:08:44.704Z,9.70
2022-11-08T17:10:19.681Z,9.70
2022-11-08T17:11:52.788Z,9.70
2022-11-08T17:13:27.165Z,9.70
2022-11-08T17:15:00.338Z,9.80
2022-11-08T17:16:33.472Z,9.80
2022-11-08T17:18:06.620Z,9.90
2022-11-08T17:19:39.662Z,9.90
2022-11-08T17:21:43.274Z,9.90
2022-11-08T17:23:09.022Z,9.90
2022-11-08T17:24:42.236Z,9.90
2022-11-08T17:26:15.331Z,9.90
2022-11-08T17:27:50.025Z,9.90
2022-11-08T17:29:24.494Z,9.90
2022-11-08T17:30:57.528Z,9.90
2022-11-08T17:32:30.563Z,9.90
2022-11-08T17:34:03.645Z,9.90
2022-11-08T17:35:41.037Z,9.90
2022-11-08T17:37:16.745Z,9.90
2022-11-08T17:38:49.783Z,9.90
2022-11-08T17:40:22.833Z,10.00
2022-11-08T17:41:55.877Z,9.90
2022-11-08T17:43:28.927Z,9.90
2022-11-08T17:45:03.375Z,10.00
2022-11-08T17:46:36.416Z,9.90
2022-11-08T17:48:09.445Z,9.90
2022-11-08T17:49:44.059Z,9.90
2022-11-08T17:51:17.815Z,10.00
2022-11-08T17:52:54.135Z,10.10
2022-11-08T17:54:27.170Z,10.10
2022-11-08T17:56:02.335Z,10.10
2022-11-08T17:57:35.538Z,10.20
2022-11-08T17:59:08.572Z,10.30
2022-11-08T18:00:44.126Z,10.30
2022-11-08T18:02:17.421Z,10.30
2022-11-08T18:03:51.053Z,10.30
2022-11-08T18:05:24.083Z,10.30
2022-11-08T18:06:59.439Z,10.30
2022-11-08T18:08:34.391Z,10.20
2022-11-08T18:10:09.204Z,10.20
2022-11-08T18:11:47.585Z,10.10
2022-11-08T18:13:21.165Z,10.10
2022-11-08T18:14:54.572Z,10.00
2022-11-08T18:16:29.736Z,10.00
2022-11-08T18:18:02.766Z,10.00
2022-11-08T18:19:35.818Z,10.00
2022-11-08T18:21:09.538Z,10.00
2022-11-08T18:22:42.597Z,10.00
2022-11-08T18:24:16.023Z,10.00
2022-11-08T18:25:49.961Z,10.00
2022-11-08T18:27:23.044Z,10.00
2022-11-08T18:28:56.104Z,10.10
2022-11-08T18:30:29.362Z,10.10
2022-11-08T18:32:03.831Z,10.20
2022-11-08T18:33:37.920Z,10.30
2022-11-08T18:35:11.685Z,10.30
2022-11-08T18:36:44.753Z,10.40
2022-11-08T18:38:17.819Z,10.40
2022-11-08T18:39:50.866Z,10.50
2022-11-08T18:41:25.836Z,10.50
2022-11-08T18:42:58.903Z,10.50
2022-11-08T18:44:32.024Z,10.50
2022-11-08T18:46:05.551Z,10.50
2022-11-08T18:47:39.930Z,10.60
2022-11-08T18:49:13.001Z,10.60
2022-11-08T18:50:50.005Z,10.60
2022-11-08T18:52:23.064Z,10.60
2022-11-08T18:53:56.307Z,10.60
2022-11-08T18:55:31.323Z,10.60
2022-11-08T18:57:04.583Z,10.60
2022-11-08T18:58:37.865Z,10.60
2022-11-08T19:00:11.849Z,10.60
2022-11-08T19:01:44.967Z,10.60
2022-11-08T19:03:19.899Z,10.60
2022-11-08T19:04:53.182Z,10.50
2022-11-08T19:06:26.450Z,10.50
2022-11-08T19:07:59.547Z,10.40
2022-11-08T19:09:32.579Z,10.40
2022-11-08T19:11:08.130Z,10.30
2022-11-08T19:12:41.307Z,10.20
2022-11-08T19:14:14.455Z,10.20
2022-11-08T19:15:56.951Z,10.20
2022-11-08T19:17:30.698Z,10.20
2022-11-08T19:19:06.331Z,10.30
2022-11-08T19:20:39.410Z,10.30
2022-11-08T19:22:12.462Z,10.40
2022-11-08T19:23:46.558Z,10.50
2022-11-08T19:25:19.679Z,10.50
2022-11-08T19:26:52.771Z,10.50
2022-11-08T19:28:30.282Z,10.50
2022-11-08T19:30:06.447Z,10.50
2022-11-08T19:31:40.189Z,10.60
2022-11-08T19:33:13.252Z,10.60
2022-11-08T19:34:48.212Z,10.60
2022-11-08T19:36:22.900Z,10.70
2022-11-08T19:37:55.997Z,10.70
2022-11-08T19:39:30.046Z,10.70
2022-11-08T19:41:03.936Z,10.70
2022-11-08T19:42:37.172Z,10.80
2022-11-08T19:44:11.213Z,10.80
2022-11-08T19:45:50.633Z,10.70
2022-11-08T19:47:24.915Z,10.60
2022-11-08T19:48:59.577Z,10.60
2022-11-08T19:50:34.118Z,10.50
2022-11-08T19:52:07.173Z,10.50
2022-11-08T19:53:40.833Z,10.50
2022-11-08T19:55:13.938Z,10.50
2022-11-08T19:58:40.093Z,10.40
2022-11-08T20:00:15.436Z,10.40
2022-11-08T20:01:48.550Z,10.40
2022-11-08T20:03:21.700Z,10.40
2022-11-08T20:04:54.742Z,10.40
2022-11-08T20:06:29.310Z,10.40
2022-11-08T20:08:05.982Z,10.50
2022-11-08T20:09:39.055Z,10.50
2022-11-08T20:11:13.237Z,10.40
2022-11-08T20:12:46.566Z,10.40
2022-11-08T20:14:19.680Z,10.40
2022-11-08T20:15:52.764Z,10.30
2022-11-08T20:17:25.819Z,10.30
2022-11-08T20:19:04.042Z,10.30
2022-11-08T20:20:39.758Z,10.20
2022-11-08T20:22:14.166Z,10.20
2022-11-08T20:23:47.605Z,10.10
2022-11-08T20:25:20.652Z,10.10
2022-11-08T20:26:55.224Z,10.10
2022-11-08T20:28:28.318Z,10.10
2022-11-08T20:30:01.381Z,10.10
2022-11-08T20:31:35.007Z,10.20
2022-11-08T20:33:08.213Z,10.20
2022-11-08T20:34:41.379Z,10.20
2022-11-08T20:36:16.345Z,10.20
2022-11-08T20:37:50.759Z,10.30
2022-11-08T20:39:23.820Z,10.30
2022-11-08T20:40:58.057Z,10.40
2022-11-08T20:42:31.100Z,10.40
2022-11-08T20:44:04.518Z,10.50
2022-11-08T20:45:40.403Z,10.50
2022-11-08T20:47:13.507Z,10.50
2022-11-08T20:48:51.386Z,10.60
2022-11-08T20:50:24.722Z,10.60
2022-11-08T20:51:57.792Z,10.60
2022-11-08T20:53:34.859Z,10.60
2022-11-08T20:55:08.339Z,10.60
2022-11-08T20:56:41.384Z,10.50
2022-11-08T20:58:14.449Z,10.50
2022-11-08T20:59:47.627Z,10.60
2022-11-08T21:01:22.931Z,10.60
2022-11-08T21:02:56.011Z,10.50
2022-11-08T21:04:29.029Z,10.60
2022-11-08T21:06:03.706Z,10.60
2022-11-08T21:09:41.578Z,10.90
2022-11-08T21:11:22.771Z,11.10
2022-11-08T21:12:55.908Z,11.30
2022-11-08T21:14:29.044Z,11.20
2022-11-08T21:16:26.950Z,11.30
2022-11-08T21:17:56.681Z,11.30
2022-11-08T21:19:29.752Z,11.20
2022-11-08T21:21:04.523Z,11.10
2022-11-08T21:22:37.538Z,11.10
2022-11-08T21:24:10.815Z,11.00
2022-11-08T21:25:45.317Z,10.80
2022-11-08T21:27:18.727Z,10.80
2022-11-08T21:28:52.191Z,10.70
2022-11-08T21:30:25.259Z,10.70
2022-11-08T21:31:58.262Z,10.60
2022-11-08T21:33:31.363Z,10.50
2022-11-08T21:35:04.443Z,10.50
2022-11-08T21:36:37.522Z,10.40
2022-11-08T21:38:10.635Z,10.40
2022-11-08T21:39:43.754Z,10.40
2022-11-08T21:41:18.188Z,10.40
2022-11-08T21:42:51.355Z,10.50
2022-11-08T21:44:24.367Z,10.60
2022-11-08T21:45:57.453Z,10.80
2022-11-08T21:47:30.517Z,10.90
2022-11-08T21:49:05.259Z,11.00
2022-11-08T21:50:39.191Z,11.00
2022-11-08T21:52:12.224Z,11.00
2022-11-08T21:53:53.566Z,11.10
2022-11-08T21:55:27.499Z,11.00
2022-11-08T21:57:01.915Z,11.00
2022-11-08T21:58:34.947Z,11.00
2022-11-08T22:00:10.521Z,11.00
2022-11-08T22:01:43.491Z,11.00
2022-11-08T22:03:16.546Z,10.90
2022-11-08T22:04:49.585Z,10.80
2022-11-08T22:06:22.740Z,10.80
2022-11-08T22:07:55.798Z,10.80
2022-11-08T22:09:29.052Z,10.80
2022-11-08T22:11:02.155Z,10.80
2022-11-08T22:12:36.726Z,10.70
2022-11-08T22:14:09.770Z,10.70
2022-11-08T22:15:44.278Z,10.60
2022-11-08T22:17:17.358Z,10.70
2022-11-08T22:19:04.363Z,10.60
2022-11-08T22:20:58.601Z,10.70
2022-11-08T22:22:31.681Z,10.70
2022-11-08T22:24:04.993Z,10.70
2022-11-08T22:25:38.011Z,10.70
2022-11-08T22:27:11.123Z,10.60
2022-11-08T22:28:45.521Z,10.60
2022-11-08T22:30:18.556Z,10.50
2022-11-08T22:31:52.081Z,10.40
2022-11-08T22:33:25.375Z,10.40
2022-11-08T22:34:58.451Z,10.40
2022-11-08T22:36:31.494Z,10.40
2022-11-08T22:38:04.550Z,10.40
2022-11-08T22:39:37.645Z,10.40
2022-11-08T22:41:10.687Z,10.50
2022-11-08T22:42:43.747Z,10.50
2022-11-08T22:44:19.114Z,10.50
2022-11-08T22:45:52.192Z,10.50
2022-11-08T22:47:25.238Z,10.50
2022-11-08T22:48:58.309Z,10.50
2022-11-08T22:50:31.395Z,10.50
2022-11-08T22:52:04.538Z,10.60
2022-11-08T22:53:37.593Z,10.60
2022-11-08T22:55:10.985Z,10.60
2022-11-08T22:56:44.033Z,10.70
2022-11-08T22:58:17.130Z,10.80
2022-11-08T22:59:51.568Z,10.90